sensor_id;sensor_type;location;lat;lon;timestamp;pressure;altitude;pressure_sealevel;temperature;humidity
19112;BME280;9688;51.906;8.376;2023-04-15T00:01:08;100029.94;;;9.22;79.13
19112;BME280;9688;51.906;8.376;2023-04-15T00:03:55;100023.94;;;9.18;79.67
19112;BME280;9688;51.906;8.376;2023-04-15T00:06:41;100021.38;;;9.16;79.06
19112;BME280;9688;51.906;8.376;2023-04-15T00:09:27;100021.44;;;9.15;79.35
19112;BME280;9688;51.906;8.376;2023-04-15T00:12:13;100015.38;;;9.13;79.98
19112;BME280;9688;51.906;8.376;2023-04-15T00:14:59;100013.59;;;9.13;80.16
19112;BME280;9688;51.906;8.376;2023-04-15T00:17:45;100012.75;;;9.13;79.72
19112;BME280;9688;51.906;8.376;2023-04-15T00:20:31;100013.59;;;9.13;79.91
19112;BME280;9688;51.906;8.376;2023-04-15T00:23:18;100016.31;;;9.12;80.40
19112;BME280;9688;51.906;8.376;2023-04-15T00:26:05;100014.56;;;9.11;79.88
19112;BME280;9688;51.906;8.376;2023-04-15T00:28:50;100012.88;;;9.10;80.09
19112;BME280;9688;51.906;8.376;2023-04-15T00:31:36;100003.44;;;9.04;80.71
19112;BME280;9688;51.906;8.376;2023-04-15T00:34:22;100001.91;;;8.99;80.64
19112;BME280;9688;51.906;8.376;2023-04-15T00:37:08;100001.97;;;8.97;81.13
19112;BME280;9688;51.906;8.376;2023-04-15T00:39:55;99999.34;;;8.97;80.85
19112;BME280;9688;51.906;8.376;2023-04-15T00:42:41;100003.03;;;8.93;81.26
19112;BME280;9688;51.906;8.376;2023-04-15T00:45:27;100001.38;;;8.90;81.58
19112;BME280;9688;51.906;8.376;2023-04-15T00:48:14;99997.94;;;8.88;81.27
19112;BME280;9688;51.906;8.376;2023-04-15T00:51:00;100005.03;;;8.86;81.70
19112;BME280;9688;51.906;8.376;2023-04-15T00:53:46;100005.03;;;8.86;81.53
19112;BME280;9688;51.906;8.376;2023-04-15T00:56:35;100000.00;;;8.82;81.77
19112;BME280;9688;51.906;8.376;2023-04-15T00:59:21;100006.53;;;8.71;81.76
19112;BME280;9688;51.906;8.376;2023-04-15T01:02:06;100002.56;;;8.61;82.56
19112;BME280;9688;51.906;8.376;2023-04-15T01:04:52;100002.81;;;8.55;82.74
19112;BME280;9688;51.906;8.376;2023-04-15T01:07:37;100008.34;;;8.49;82.79
19112;BME280;9688;51.906;8.376;2023-04-15T01:10:23;100003.38;;;8.41;83.25
19112;BME280;9688;51.906;8.376;2023-04-15T01:13:10;100001.69;;;8.39;83.25
19112;BME280;9688;51.906;8.376;2023-04-15T01:15:56;99997.38;;;8.36;83.53
19112;BME280;9688;51.906;8.376;2023-04-15T01:18:41;99996.59;;;8.34;83.54
19112;BME280;9688;51.906;8.376;2023-04-15T01:21:27;99999.25;;;8.34;83.60
19112;BME280;9688;51.906;8.376;2023-04-15T01:24:17;99993.09;;;8.34;83.64
19112;BME280;9688;51.906;8.376;2023-04-15T01:27:05;99998.44;;;8.32;84.00
19112;BME280;9688;51.906;8.376;2023-04-15T01:29:51;99995.06;;;8.29;83.78
19112;BME280;9688;51.906;8.376;2023-04-15T01:32:39;99991.63;;;8.26;83.98
19112;BME280;9688;51.906;8.376;2023-04-15T01:35:26;100001.34;;;8.24;83.78
19112;BME280;9688;51.906;8.376;2023-04-15T01:38:12;100000.56;;;8.22;84.23
19112;BME280;9688;51.906;8.376;2023-04-15T01:40:58;99999.78;;;8.20;84.48
19112;BME280;9688;51.906;8.376;2023-04-15T01:43:44;99998.13;;;8.18;84.75
19112;BME280;9688;51.906;8.376;2023-04-15T01:46:30;100007.03;;;8.14;84.76
19112;BME280;9688;51.906;8.376;2023-04-15T01:49:16;100007.03;;;8.14;84.57
19112;BME280;9688;51.906;8.376;2023-04-15T01:52:01;100008.00;;;8.11;84.87
19112;BME280;9688;51.906;8.376;2023-04-15T01:54:47;100006.44;;;8.07;84.73
19112;BME280;9688;51.906;8.376;2023-04-15T01:57:33;100014.56;;;8.01;85.17
19112;BME280;9688;51.906;8.376;2023-04-15T02:00:22;100018.31;;;7.94;85.34
19112;BME280;9688;51.906;8.376;2023-04-15T02:03:08;100027.19;;;7.91;85.77
19112;BME280;9688;51.906;8.376;2023-04-15T02:05:55;100026.34;;;7.91;85.97
19112;BME280;9688;51.906;8.376;2023-04-15T02:08:40;100029.84;;;7.90;85.66
19112;BME280;9688;51.906;8.376;2023-04-15T02:11:26;100027.22;;;7.90;85.74
19112;BME280;9688;51.906;8.376;2023-04-15T02:14:12;100025.59;;;7.87;85.92
19112;BME280;9688;51.906;8.376;2023-04-15T02:16:59;100022.19;;;7.83;86.13
19112;BME280;9688;51.906;8.376;2023-04-15T02:19:50;100024.22;;;7.77;86.24
19112;BME280;9688;51.906;8.376;2023-04-15T02:22:36;100026.03;;;7.75;86.75
19112;BME280;9688;51.906;8.376;2023-04-15T02:25:21;100026.09;;;7.73;87.00
19112;BME280;9688;51.906;8.376;2023-04-15T02:28:07;100027.06;;;7.71;86.65
19112;BME280;9688;51.906;8.376;2023-04-15T02:30:53;100021.84;;;7.69;86.92
19112;BME280;9688;51.906;8.376;2023-04-15T02:33:42;100028.91;;;7.69;87.58
19112;BME280;9688;51.906;8.376;2023-04-15T02:36:29;100025.53;;;7.65;87.34
19112;BME280;9688;51.906;8.376;2023-04-15T02:39:15;100025.63;;;7.62;87.37
19112;BME280;9688;51.906;8.376;2023-04-15T02:42:01;100025.69;;;7.60;87.80
19112;BME280;9688;51.906;8.376;2023-04-15T02:44:48;100029.31;;;7.56;88.22
19112;BME280;9688;51.906;8.376;2023-04-15T02:47:34;100033.84;;;7.53;88.17
19112;BME280;9688;51.906;8.376;2023-04-15T02:50:21;100034.75;;;7.52;88.52
19112;BME280;9688;51.906;8.376;2023-04-15T02:53:09;100039.94;;;7.53;88.68
19112;BME280;9688;51.906;8.376;2023-04-15T02:55:54;100030.34;;;7.52;88.48
19112;BME280;9688;51.906;8.376;2023-04-15T02:58:40;100038.28;;;7.51;88.82
19112;BME280;9688;51.906;8.376;2023-04-15T03:01:26;100036.47;;;7.53;88.34
19112;BME280;9688;51.906;8.376;2023-04-15T03:04:11;100042.56;;;7.53;88.35
19112;BME280;9688;51.906;8.376;2023-04-15T03:07:01;100032.94;;;7.54;88.61
19112;BME280;9688;51.906;8.376;2023-04-15T03:09:46;100038.19;;;7.54;88.36
19112;BME280;9688;51.906;8.376;2023-04-15T03:12:32;100035.66;;;7.51;89.00
19112;BME280;9688;51.906;8.376;2023-04-15T03:15:18;100029.59;;;7.49;89.15
19112;BME280;9688;51.906;8.376;2023-04-15T03:18:04;100027.97;;;7.45;89.33
19112;BME280;9688;51.906;8.376;2023-04-15T03:20:49;100029.88;;;7.41;88.86
19112;BME280;9688;51.906;8.376;2023-04-15T03:23:36;100032.66;;;7.36;89.50
19112;BME280;9688;51.906;8.376;2023-04-15T03:26:26;100028.31;;;7.35;89.09
19112;BME280;9688;51.906;8.376;2023-04-15T03:29:12;100031.81;;;7.36;89.78
19112;BME280;9688;51.906;8.376;2023-04-15T03:31:58;100027.47;;;7.35;88.96
19112;BME280;9688;51.906;8.376;2023-04-15T03:34:44;100024.94;;;7.32;89.10
19112;BME280;9688;51.906;8.376;2023-04-15T03:37:29;100019.78;;;7.29;88.95
19112;BME280;9688;51.906;8.376;2023-04-15T03:40:16;100026.91;;;7.25;89.73
19112;BME280;9688;51.906;8.376;2023-04-15T03:43:01;100030.47;;;7.24;89.72
19112;BME280;9688;51.906;8.376;2023-04-15T03:45:47;100032.38;;;7.19;90.15
19112;BME280;9688;51.906;8.376;2023-04-15T03:48:33;100028.09;;;7.17;89.64
19112;BME280;9688;51.906;8.376;2023-04-15T03:51:18;100028.94;;;7.17;90.34
19112;BME280;9688;51.906;8.376;2023-04-15T03:54:04;100033.31;;;7.18;90.20
19112;BME280;9688;51.906;8.376;2023-04-15T03:56:51;100034.09;;;7.20;90.19
19112;BME280;9688;51.906;8.376;2023-04-15T03:59:37;100027.97;;;7.20;89.65
19112;BME280;9688;51.906;8.376;2023-04-15T04:02:22;100028.94;;;7.17;89.60
19112;BME280;9688;51.906;8.376;2023-04-15T04:05:08;100030.78;;;7.15;90.07
19112;BME280;9688;51.906;8.376;2023-04-15T04:07:54;100041.38;;;7.12;90.35
19112;BME280;9688;51.906;8.376;2023-04-15T04:10:39;100044.97;;;7.09;90.16
19112;BME280;9688;51.906;8.376;2023-04-15T04:13:26;100042.41;;;7.08;90.29
19112;BME280;9688;51.906;8.376;2023-04-15T04:16:11;100045.88;;;7.08;90.57
19112;BME280;9688;51.906;8.376;2023-04-15T04:18:57;100049.31;;;7.10;90.30
19112;BME280;9688;51.906;8.376;2023-04-15T04:21:42;100052.81;;;7.11;90.42
19112;BME280;9688;51.906;8.376;2023-04-15T04:24:28;100054.47;;;7.13;90.16
19112;BME280;9688;51.906;8.376;2023-04-15T04:27:14;100048.19;;;7.18;90.74
19112;BME280;9688;51.906;8.376;2023-04-15T04:30:09;100052.56;;;7.19;89.91
19112;BME280;9688;51.906;8.376;2023-04-15T04:32:56;100054.22;;;7.21;89.82
19112;BME280;9688;51.906;8.376;2023-04-15T04:35:42;100058.56;;;7.22;90.05
19112;BME280;9688;51.906;8.376;2023-04-15T04:38:27;100054.16;;;7.23;89.85
19112;BME280;9688;51.906;8.376;2023-04-15T04:41:13;100049.69;;;7.26;90.38
19112;BME280;9688;51.906;8.376;2023-04-15T04:43:59;100056.59;;;7.29;90.32
19112;BME280;9688;51.906;8.376;2023-04-15T04:46:45;100052.97;;;7.31;90.61
19112;BME280;9688;51.906;8.376;2023-04-15T04:49:31;100051.06;;;7.36;89.92
19112;BME280;9688;51.906;8.376;2023-04-15T04:52:17;100057.03;;;7.42;90.22
19112;BME280;9688;51.906;8.376;2023-04-15T04:55:03;100056.88;;;7.46;90.03
19112;BME280;9688;51.906;8.376;2023-04-15T04:57:49;100058.53;;;7.49;90.33
19112;BME280;9688;51.906;8.376;2023-04-15T05:00:35;100060.22;;;7.51;90.20
19112;BME280;9688;51.906;8.376;2023-04-15T05:03:22;100064.53;;;7.52;89.96
19112;BME280;9688;51.906;8.376;2023-04-15T05:06:08;100063.72;;;7.50;90.22
19112;BME280;9688;51.906;8.376;2023-04-15T05:08:55;100061.16;;;7.49;90.16
19112;BME280;9688;51.906;8.376;2023-04-15T05:11:41;100073.50;;;7.47;89.98
19112;BME280;9688;51.906;8.376;2023-04-15T05:14:26;100067.28;;;7.49;90.29
19112;BME280;9688;51.906;8.376;2023-04-15T05:17:13;100076.78;;;7.53;89.68
19112;BME280;9688;51.906;8.376;2023-04-15T05:20:00;100071.31;;;7.59;89.99
19112;BME280;9688;51.906;8.376;2023-04-15T05:22:50;100069.34;;;7.65;89.30
19112;BME280;9688;51.906;8.376;2023-04-15T05:25:36;100066.56;;;7.69;89.63
19112;BME280;9688;51.906;8.376;2023-04-15T05:28:21;100080.44;;;7.74;89.39
19112;BME280;9688;51.906;8.376;2023-04-15T05:31:07;100078.50;;;7.79;89.25
19112;BME280;9688;51.906;8.376;2023-04-15T05:33:52;100081.75;;;7.86;89.54
19112;BME280;9688;51.906;8.376;2023-04-15T05:36:39;100082.41;;;7.93;89.32
19112;BME280;9688;51.906;8.376;2023-04-15T05:39:25;100079.56;;;7.99;89.14
19112;BME280;9688;51.906;8.376;2023-04-15T05:42:10;100087.16;;;8.07;89.38
19112;BME280;9688;51.906;8.376;2023-04-15T05:44:56;100082.66;;;8.10;88.81
19112;BME280;9688;51.906;8.376;2023-04-15T05:47:41;100088.59;;;8.15;88.92
19112;BME280;9688;51.906;8.376;2023-04-15T05:50:26;100092.78;;;8.21;88.50
19112;BME280;9688;51.906;8.376;2023-04-15T05:53:13;100088.22;;;8.26;88.87
19112;BME280;9688;51.906;8.376;2023-04-15T05:55:59;100098.38;;;8.35;88.54
19112;BME280;9688;51.906;8.376;2023-04-15T05:58:46;100092.16;;;8.38;88.79
19112;BME280;9688;51.906;8.376;2023-04-15T06:01:32;100099.97;;;8.41;88.50
19112;BME280;9688;51.906;8.376;2023-04-15T06:04:18;100106.75;;;8.46;88.61
19112;BME280;9688;51.906;8.376;2023-04-15T06:07:04;100111.78;;;8.53;88.24
19112;BME280;9688;51.906;8.376;2023-04-15T06:09:51;100115.06;;;8.59;88.18
19112;BME280;9688;51.906;8.376;2023-04-15T06:12:39;100113.84;;;8.68;88.37
19112;BME280;9688;51.906;8.376;2023-04-15T06:15:25;100115.38;;;8.74;87.70
19112;BME280;9688;51.906;8.376;2023-04-15T06:18:10;100119.31;;;8.85;87.68
19112;BME280;9688;51.906;8.376;2023-04-15T06:20:56;100111.97;;;8.93;87.68
19112;BME280;9688;51.906;8.376;2023-04-15T06:23:43;100122.13;;;9.03;86.95
19112;BME280;9688;51.906;8.376;2023-04-15T06:26:30;100120.00;;;9.12;86.91
19112;BME280;9688;51.906;8.376;2023-04-15T06:29:16;100123.94;;;9.23;86.67
19112;BME280;9688;51.906;8.376;2023-04-15T06:32:02;100124.41;;;9.34;86.12
19112;BME280;9688;51.906;8.376;2023-04-15T06:34:48;100120.44;;;9.44;86.05
19112;BME280;9688;51.906;8.376;2023-04-15T06:37:33;100120.84;;;9.55;86.22
19112;BME280;9688;51.906;8.376;2023-04-15T06:40:19;100128.38;;;9.65;85.49
19112;BME280;9688;51.906;8.376;2023-04-15T06:43:08;100126.28;;;9.73;85.38
19112;BME280;9688;51.906;8.376;2023-04-15T06:45:53;100128.50;;;9.82;85.00
19112;BME280;9688;51.906;8.376;2023-04-15T06:48:39;100130.56;;;9.96;85.44
19112;BME280;9688;51.906;8.376;2023-04-15T06:51:25;100134.50;;;10.06;84.70
19112;BME280;9688;51.906;8.376;2023-04-15T06:54:11;100126.50;;;10.08;84.65
19112;BME280;9688;51.906;8.376;2023-04-15T06:56:56;100128.88;;;10.14;84.92
19112;BME280;9688;51.906;8.376;2023-04-15T06:59:46;100126.81;;;10.20;84.38
19112;BME280;9688;51.906;8.376;2023-04-15T07:02:32;100126.69;;;10.23;83.94
19112;BME280;9688;51.906;8.376;2023-04-15T07:05:18;100130.22;;;10.22;84.06
19112;BME280;9688;51.906;8.376;2023-04-15T07:08:04;100130.50;;;10.16;85.35
19112;BME280;9688;51.906;8.376;2023-04-15T07:10:49;100129.53;;;10.19;84.81
19112;BME280;9688;51.906;8.376;2023-04-15T07:13:36;100130.22;;;10.22;84.68
19112;BME280;9688;51.906;8.376;2023-04-15T07:16:24;100131.97;;;10.23;85.07
19112;BME280;9688;51.906;8.376;2023-04-15T07:19:09;100137.78;;;10.11;85.26
19112;BME280;9688;51.906;8.376;2023-04-15T07:21:55;100137.34;;;10.01;85.44
19112;BME280;9688;51.906;8.376;2023-04-15T07:24:41;100139.66;;;9.89;85.74
19112;BME280;9688;51.906;8.376;2023-04-15T07:27:27;100143.56;;;9.80;86.22
19112;BME280;9688;51.906;8.376;2023-04-15T07:30:16;100141.03;;;9.77;86.62
19112;BME280;9688;51.906;8.376;2023-04-15T07:33:06;100148.66;;;9.85;85.37
19112;BME280;9688;51.906;8.376;2023-04-15T07:35:53;100148.03;;;9.78;86.19
19112;BME280;9688;51.906;8.376;2023-04-15T07:38:39;100154.56;;;9.69;86.42
19112;BME280;9688;51.906;8.376;2023-04-15T07:41:24;100161.72;;;9.67;87.06
19112;BME280;9688;51.906;8.376;2023-04-15T07:44:10;100160.06;;;9.65;86.60
19112;BME280;9688;51.906;8.376;2023-04-15T07:46:57;100154.69;;;9.66;86.78
19112;BME280;9688;51.906;8.376;2023-04-15T07:49:45;100157.59;;;9.80;86.69
19112;BME280;9688;51.906;8.376;2023-04-15T07:52:30;100158.34;;;9.84;87.00
19112;BME280;9688;51.906;8.376;2023-04-15T07:55:22;100162.81;;;9.82;87.21
19112;BME280;9688;51.906;8.376;2023-04-15T07:58:08;100167.56;;;9.74;86.88
19112;BME280;9688;51.906;8.376;2023-04-15T08:00:54;100167.91;;;9.66;87.76
19112;BME280;9688;51.906;8.376;2023-04-15T08:03:39;100165.91;;;9.51;87.89
19112;BME280;9688;51.906;8.376;2023-04-15T08:06:27;100168.06;;;9.41;88.75
19112;BME280;9688;51.906;8.376;2023-04-15T08:09:14;100172.84;;;9.31;88.60
19112;BME280;9688;51.906;8.376;2023-04-15T08:12:00;100171.19;;;9.29;89.33
19112;BME280;9688;51.906;8.376;2023-04-15T08:14:46;100176.09;;;9.38;89.92
19112;BME280;9688;51.906;8.376;2023-04-15T08:17:31;100177.06;;;9.35;89.76
19112;BME280;9688;51.906;8.376;2023-04-15T08:20:18;100175.25;;;9.37;90.68
19112;BME280;9688;51.906;8.376;2023-04-15T08:23:06;100171.66;;;9.38;90.25
19112;BME280;9688;51.906;8.376;2023-04-15T08:25:51;100182.19;;;9.40;90.89
19112;BME280;9688;51.906;8.376;2023-04-15T08:28:38;100170.69;;;9.41;90.46
19112;BME280;9688;51.906;8.376;2023-04-15T08:31:26;100173.06;;;9.47;91.14
19112;BME280;9688;51.906;8.376;2023-04-15T08:34:13;100182.63;;;9.50;91.49
19112;BME280;9688;51.906;8.376;2023-04-15T08:37:03;100177.38;;;9.50;91.15
19112;BME280;9688;51.906;8.376;2023-04-15T08:39:50;100177.19;;;9.54;91.63
19112;BME280;9688;51.906;8.376;2023-04-15T08:42:40;100181.16;;;9.65;91.45
19112;BME280;9688;51.906;8.376;2023-04-15T08:45:29;100186.38;;;9.66;91.75
19112;BME280;9688;51.906;8.376;2023-04-15T08:48:16;100184.34;;;9.73;91.89
19112;BME280;9688;51.906;8.376;2023-04-15T08:51:03;100189.41;;;9.77;92.54
19112;BME280;9688;51.906;8.376;2023-04-15T08:53:51;100186.22;;;9.69;92.93
19112;BME280;9688;51.906;8.376;2023-04-15T08:56:41;100184.53;;;9.68;92.52
19112;BME280;9688;51.906;8.376;2023-04-15T08:59:27;100191.81;;;9.61;93.34
19112;BME280;9688;51.906;8.376;2023-04-15T09:02:15;100192.84;;;9.59;93.38
19112;BME280;9688;51.906;8.376;2023-04-15T09:05:01;100194.69;;;9.57;93.57
19112;BME280;9688;51.906;8.376;2023-04-15T09:07:50;100189.66;;;9.51;93.48
19112;BME280;9688;51.906;8.376;2023-04-15T09:10:35;100186.81;;;9.55;93.35
19112;BME280;9688;51.906;8.376;2023-04-15T09:13:22;100191.19;;;9.56;94.73
19112;BME280;9688;51.906;8.376;2023-04-15T09:16:09;100189.94;;;9.65;93.44
19112;BME280;9688;51.906;8.376;2023-04-15T09:18:55;100192.06;;;9.77;94.66
19112;BME280;9688;51.906;8.376;2023-04-15T09:21:40;100200.31;;;9.90;94.04
19112;BME280;9688;51.906;8.376;2023-04-15T09:24:34;100198.41;;;9.94;94.08
19112;BME280;9688;51.906;8.376;2023-04-15T09:27:21;100201.75;;;9.97;94.16
19112;BME280;9688;51.906;8.376;2023-04-15T09:30:09;100191.69;;;10.07;93.72
19112;BME280;9688;51.906;8.376;2023-04-15T09:32:58;100203.22;;;10.25;93.34
19112;BME280;9688;51.906;8.376;2023-04-15T09:35:56;100208.72;;;10.41;94.03
19112;BME280;9688;51.906;8.376;2023-04-15T09:38:53;100203.94;;;10.49;93.14
19112;BME280;9688;51.906;8.376;2023-04-15T09:41:39;100219.53;;;10.55;92.73
19112;BME280;9688;51.906;8.376;2023-04-15T09:44:26;100221.41;;;10.53;92.38
19112;BME280;9688;51.906;8.376;2023-04-15T09:47:27;100215.31;;;10.51;92.55
19112;BME280;9688;51.906;8.376;2023-04-15T09:50:18;100226.69;;;10.53;94.09
19112;BME280;9688;51.906;8.376;2023-04-15T09:53:09;100214.53;;;10.49;93.04
19112;BME280;9688;51.906;8.376;2023-04-15T09:55:59;100213.47;;;10.53;93.74
19112;BME280;9688;51.906;8.376;2023-04-15T09:58:55;100220.19;;;10.60;93.18
19112;BME280;9688;51.906;8.376;2023-04-15T10:01:41;100225.41;;;10.62;93.18
19112;BME280;9688;51.906;8.376;2023-04-15T10:04:29;100225.94;;;10.49;93.18
19112;BME280;9688;51.906;8.376;2023-04-15T10:07:16;100231.50;;;10.43;93.93
19112;BME280;9688;51.906;8.376;2023-04-15T10:10:06;100227.88;;;10.46;93.55
19112;BME280;9688;51.906;8.376;2023-04-15T10:12:53;100227.72;;;10.49;93.18
19112;BME280;9688;51.906;8.376;2023-04-15T10:15:43;100225.81;;;10.53;93.64
19112;BME280;9688;51.906;8.376;2023-04-15T10:18:33;100224.16;;;10.50;94.07
19112;BME280;9688;51.906;8.376;2023-04-15T10:21:21;100231.88;;;10.55;93.38
19112;BME280;9688;51.906;8.376;2023-04-15T10:24:07;100230.56;;;10.44;94.13
19112;BME280;9688;51.906;8.376;2023-04-15T10:26:53;100228.44;;;10.34;94.55
19112;BME280;9688;51.906;8.376;2023-04-15T10:29:40;100231.31;;;10.27;93.75
19112;BME280;9688;51.906;8.376;2023-04-15T10:32:30;100229.75;;;10.22;93.91
19112;BME280;9688;51.906;8.376;2023-04-15T10:35:17;100229.00;;;10.20;94.17
19112;BME280;9688;51.906;8.376;2023-04-15T10:41:23;100226.03;;;10.27;94.76
19112;BME280;9688;51.906;8.376;2023-04-15T10:44:09;100230.31;;;10.30;95.39
19112;BME280;9688;51.906;8.376;2023-04-15T10:46:57;100234.69;;;10.31;95.49
19112;BME280;9688;51.906;8.376;2023-04-15T10:49:45;100232.50;;;10.20;95.70
19112;BME280;9688;51.906;8.376;2023-04-15T10:52:31;100243.63;;;10.07;96.15
19112;BME280;9688;51.906;8.376;2023-04-15T10:55:20;100247.31;;;10.02;96.44
19112;BME280;9688;51.906;8.376;2023-04-15T10:58:08;100249.38;;;9.96;97.30
19112;BME280;9688;51.906;8.376;2023-04-15T11:00:55;100248.84;;;9.88;97.03
19112;BME280;9688;51.906;8.376;2023-04-15T11:03:42;100242.88;;;9.82;97.32
19112;BME280;9688;51.906;8.376;2023-04-15T11:06:44;100243.81;;;9.81;98.27
19112;BME280;9688;51.906;8.376;2023-04-15T11:09:30;100248.88;;;9.86;98.42
19112;BME280;9688;51.906;8.376;2023-04-15T11:12:18;100252.28;;;9.90;98.85
19112;BME280;9688;51.906;8.376;2023-04-15T11:15:28;100252.16;;;9.93;98.42
19112;BME280;9688;51.906;8.376;2023-04-15T11:18:15;100249.25;;;9.99;98.80
19112;BME280;9688;51.906;8.376;2023-04-15T11:21:03;100256.19;;;10.01;98.42
19112;BME280;9688;51.906;8.376;2023-04-15T11:23:51;100255.78;;;10.11;99.26
19112;BME280;9688;51.906;8.376;2023-04-15T11:26:40;100258.16;;;10.17;98.81
19112;BME280;9688;51.906;8.376;2023-04-15T11:29:29;100264.97;;;10.22;98.69
19112;BME280;9688;51.906;8.376;2023-04-15T11:32:20;100257.97;;;10.21;98.61
19112;BME280;9688;51.906;8.376;2023-04-15T11:35:07;100271.13;;;10.23;99.57
19112;BME280;9688;51.906;8.376;2023-04-15T11:37:53;100264.06;;;10.23;98.78
19112;BME280;9688;51.906;8.376;2023-04-15T11:40:40;100274.44;;;10.28;99.13
19112;BME280;9688;51.906;8.376;2023-04-15T11:43:26;100279.63;;;10.31;98.66
19112;BME280;9688;51.906;8.376;2023-04-15T11:46:12;100286.78;;;10.27;98.91
19112;BME280;9688;51.906;8.376;2023-04-15T11:49:00;100291.31;;;10.24;99.90
19112;BME280;9688;51.906;8.376;2023-04-15T11:51:45;100293.09;;;10.23;99.10
19112;BME280;9688;51.906;8.376;2023-04-15T11:54:31;100295.63;;;10.26;99.93
19112;BME280;9688;51.906;8.376;2023-04-15T11:57:17;100297.34;;;10.27;99.60
19112;BME280;9688;51.906;8.376;2023-04-15T12:00:05;100299.94;;;10.29;99.23
19112;BME280;9688;51.906;8.376;2023-04-15T12:03:11;100304.28;;;10.30;100.00
19112;BME280;9688;51.906;8.376;2023-04-15T12:06:12;100296.38;;;10.30;100.00
19112;BME280;9688;51.906;8.376;2023-04-15T12:09:07;100306.19;;;10.26;99.54
19112;BME280;9688;51.906;8.376;2023-04-15T12:11:56;100304.66;;;10.21;100.00
19112;BME280;9688;51.906;8.376;2023-04-15T12:14:42;100311.72;;;10.20;100.00
19112;BME280;9688;51.906;8.376;2023-04-15T12:17:31;100312.47;;;10.24;100.00
19112;BME280;9688;51.906;8.376;2023-04-15T12:20:24;100314.06;;;10.28;100.00
19112;BME280;9688;51.906;8.376;2023-04-15T12:23:12;100319.25;;;10.31;99.87
19112;BME280;9688;51.906;8.376;2023-04-15T12:26:04;100318.34;;;10.31;100.00
19112;BME280;9688;51.906;8.376;2023-04-15T12:28:52;100314.72;;;10.33;100.00
19112;BME280;9688;51.906;8.376;2023-04-15T12:31:49;100324.31;;;10.36;100.00
19112;BME280;9688;51.906;8.376;2023-04-15T12:34:37;100326.09;;;10.35;99.77
19112;BME280;9688;51.906;8.376;2023-04-15T12:37:23;100332.38;;;10.33;100.00
19112;BME280;9688;51.906;8.376;2023-04-15T12:40:11;100334.16;;;10.32;100.00
19112;BME280;9688;51.906;8.376;2023-04-15T12:43:02;100341.09;;;10.35;100.00
19112;BME280;9688;51.906;8.376;2023-04-15T12:45:53;100340.97;;;10.38;100.00
19112;BME280;9688;51.906;8.376;2023-04-15T12:48:39;100334.56;;;10.43;100.00
19112;BME280;9688;51.906;8.376;2023-04-15T12:51:26;100343.16;;;10.48;100.00
19112;BME280;9688;51.906;8.376;2023-04-15T12:54:12;100347.31;;;10.54;100.00
19112;BME280;9688;51.906;8.376;2023-04-15T12:56:59;100353.56;;;10.53;100.00
19112;BME280;9688;51.906;8.376;2023-04-15T12:59:46;100350.03;;;10.53;100.00
19112;BME280;9688;51.906;8.376;2023-04-15T13:02:32;100358.94;;;10.50;100.00
19112;BME280;9688;51.906;8.376;2023-04-15T13:05:17;100359.69;;;10.54;100.00
19112;BME280;9688;51.906;8.376;2023-04-15T13:08:05;100353.56;;;10.53;100.00
19112;BME280;9688;51.906;8.376;2023-04-15T13:10:51;100357.19;;;10.51;100.00
19112;BME280;9688;51.906;8.376;2023-04-15T13:13:39;100361.72;;;10.47;100.00
19112;BME280;9688;51.906;8.376;2023-04-15T13:16:26;100358.16;;;10.48;100.00
19112;BME280;9688;51.906;8.376;2023-04-15T13:19:13;100365.03;;;10.52;100.00
19112;BME280;9688;51.906;8.376;2023-04-15T13:22:01;100357.94;;;10.53;100.00
19112;BME280;9688;51.906;8.376;2023-04-15T13:24:48;100370.53;;;10.47;100.00
19112;BME280;9688;51.906;8.376;2023-04-15T13:27:34;100368.91;;;10.43;100.00
19112;BME280;9688;51.906;8.376;2023-04-15T13:30:23;100361.03;;;10.42;100.00
19112;BME280;9688;51.906;8.376;2023-04-15T13:33:09;100365.28;;;10.46;100.00
19112;BME280;9688;51.906;8.376;2023-04-15T13:35:55;100365.97;;;10.51;100.00
19112;BME280;9688;51.906;8.376;2023-04-15T13:38:40;100374.03;;;10.48;100.00
19112;BME280;9688;51.906;8.376;2023-04-15T13:41:27;100374.94;;;10.47;100.00
19112;BME280;9688;51.906;8.376;2023-04-15T13:44:14;100385.31;;;10.52;100.00
19112;BME280;9688;51.906;8.376;2023-04-15T13:47:04;100376.53;;;10.51;100.00
19112;BME280;9688;51.906;8.376;2023-04-15T13:49:50;100388.13;;;10.47;100.00
19112;BME280;9688;51.906;8.376;2023-04-15T13:52:40;100388.13;;;10.47;100.00
19112;BME280;9688;51.906;8.376;2023-04-15T13:55:26;100386.31;;;10.49;100.00
19112;BME280;9688;51.906;8.376;2023-04-15T13:58:11;100394.91;;;10.54;100.00
19112;BME280;9688;51.906;8.376;2023-04-15T14:00:57;100397.47;;;10.56;100.00
19112;BME280;9688;51.906;8.376;2023-04-15T14:03:44;100402.25;;;10.47;100.00
19112;BME280;9688;51.906;8.376;2023-04-15T14:06:29;100401.56;;;10.42;100.00
19112;BME280;9688;51.906;8.376;2023-04-15T14:09:15;100398.16;;;10.39;100.00
19112;BME280;9688;51.906;8.376;2023-04-15T14:12:01;100410.84;;;10.31;100.00
19112;BME280;9688;51.906;8.376;2023-04-15T14:14:46;100410.91;;;10.29;100.00
19112;BME280;9688;51.906;8.376;2023-04-15T14:17:32;100409.16;;;10.28;100.00
19112;BME280;9688;51.906;8.376;2023-04-15T14:20:19;100422.44;;;10.26;100.00
19112;BME280;9688;51.906;8.376;2023-04-15T14:23:05;100432.94;;;10.28;100.00
19112;BME280;9688;51.906;8.376;2023-04-15T14:25:52;100434.81;;;10.24;100.00
19112;BME280;9688;51.906;8.376;2023-04-15T14:28:38;100438.56;;;10.19;100.00
19112;BME280;9688;51.906;8.376;2023-04-15T14:31:24;100433.41;;;10.16;100.00
19112;BME280;9688;51.906;8.376;2023-04-15T14:34:10;100444.97;;;10.13;100.00
19112;BME280;9688;51.906;8.376;2023-04-15T14:36:58;100448.53;;;10.12;100.00
19112;BME280;9688;51.906;8.376;2023-04-15T14:39:44;100445.78;;;10.15;100.00
19112;BME280;9688;51.906;8.376;2023-04-15T14:42:31;100459.72;;;10.19;100.00
19112;BME280;9688;51.906;8.376;2023-04-15T14:45:17;100449.16;;;10.19;100.00
19112;BME280;9688;51.906;8.376;2023-04-15T14:48:03;100455.25;;;10.21;100.00
19112;BME280;9688;51.906;8.376;2023-04-15T14:50:49;100462.06;;;10.26;100.00
19112;BME280;9688;51.906;8.376;2023-04-15T14:53:37;100469.09;;;10.27;100.00